Ferme-Neuve, Canada
Current Conditions -  °F | °C
As of 10:00 AM on Saturday 22 Nov 2014 (Local Time) from CYND Reporting Station
Overcast Overcast  
Wind Chill: 19°   Ceiling: 12000
Heat Index: 32°   Visibility: 15mi
Dew Point: 23°   Wind: 22mph
Humidity: 69%   Direction: 230°SW
Pressure: 30.05"   Gusts: NA
Location:  46.7°N, 75.45°W
Report Text: CYND 221500Z 23019KT 15SM FEW025 OVC120 00/M05 A3005 RMK SC2AC6 SLP178
Loading
Personal Weather Stations






























Interactive Weather Map New forecast layout! Learn more

10-Day Weather Forecast

Advertisements
Track Severe Weather on mobile